createdAt,value
2022-09-13T00:03:45.794Z,6.83
2022-09-13T00:08:38.603Z,7.72
2022-09-13T00:13:29.013Z,8.00
2022-09-13T00:18:22.525Z,7.60
2022-09-13T00:23:16.055Z,7.57
2022-09-13T00:28:08.805Z,8.05
2022-09-13T00:32:59.342Z,7.70
2022-09-13T00:37:55.056Z,8.20
2022-09-13T00:42:48.556Z,8.13
2022-09-13T00:47:43.642Z,9.00
2022-09-13T00:52:37.439Z,9.25
2022-09-13T00:57:35.233Z,9.30
2022-09-13T01:02:26.160Z,9.52
2022-09-13T01:07:20.752Z,9.15
2022-09-13T01:12:22.223Z,10.57
2022-09-13T01:17:15.549Z,9.93
2022-09-13T01:22:40.171Z,8.75
2022-09-13T01:27:44.041Z,10.65
2022-09-13T01:32:58.332Z,9.35
2022-09-13T01:37:56.493Z,8.98
2022-09-13T01:43:10.336Z,8.60
2022-09-13T01:48:11.428Z,8.68
2022-09-13T01:53:07.517Z,9.55
2022-09-13T01:58:06.564Z,9.23
2022-09-13T02:03:08.843Z,9.90
2022-09-13T02:08:07.778Z,8.65
2022-09-13T02:13:00.243Z,8.77
2022-09-13T02:17:56.753Z,8.77
2022-09-13T02:22:51.687Z,9.10
2022-09-13T02:27:51.823Z,8.93
2022-09-13T02:32:47.032Z,8.40
2022-09-13T02:37:41.555Z,9.52
2022-09-13T02:42:39.429Z,9.57
2022-09-13T02:47:42.188Z,9.85
2022-09-13T02:52:42.601Z,10.52
2022-09-13T02:57:41.889Z,8.90
2022-09-13T03:02:37.086Z,9.90
2022-09-13T03:07:40.265Z,9.75
2022-09-13T03:12:51.046Z,10.45
2022-09-13T03:17:58.677Z,9.60
2022-09-13T03:23:17.270Z,9.13
2022-09-13T03:28:20.901Z,10.30
2022-09-13T03:33:24.033Z,11.02
2022-09-13T03:38:20.022Z,9.93
2022-09-13T03:43:17.261Z,9.37
2022-09-13T03:48:11.320Z,9.90
2022-09-13T03:53:11.434Z,10.93
2022-09-13T03:58:01.756Z,9.47
2022-09-13T04:02:55.943Z,8.55
2022-09-13T04:07:46.436Z,8.93
2022-09-13T04:12:41.652Z,9.38
2022-09-13T04:17:33.558Z,9.15
2022-09-13T04:22:23.933Z,10.03
2022-09-13T04:27:14.740Z,9.70
2022-09-13T04:32:09.508Z,9.60
2022-09-13T04:37:05.524Z,9.05
2022-09-13T04:41:57.548Z,9.63
2022-09-13T04:46:50.994Z,10.13
2022-09-13T04:51:44.040Z,11.18
2022-09-13T04:56:34.420Z,13.40
2022-09-13T05:01:28.024Z,13.38
2022-09-13T05:06:24.600Z,13.57
2022-09-13T05:11:17.448Z,10.03
2022-09-13T05:16:10.308Z,10.52
2022-09-13T05:21:02.949Z,10.18
2022-09-13T05:25:57.096Z,14.77
2022-09-13T05:30:58.725Z,12.43
2022-09-13T05:35:49.676Z,11.52
2022-09-13T05:40:40.144Z,13.00
2022-09-13T05:45:33.087Z,12.75
2022-09-13T05:50:56.017Z,10.67
2022-09-13T05:55:42.129Z,11.13
2022-09-13T06:00:34.190Z,14.80
2022-09-13T06:05:31.875Z,14.20
2022-09-13T06:10:24.601Z,12.07
2022-09-13T06:15:15.867Z,14.70
2022-09-13T06:20:07.328Z,14.20
2022-09-13T06:25:00.948Z,15.02
2022-09-13T06:29:52.737Z,13.32
2022-09-13T06:34:43.180Z,13.55
2022-09-13T06:39:34.603Z,17.57
2022-09-13T06:44:27.268Z,19.33
2022-09-13T06:49:17.930Z,18.52
2022-09-13T06:54:07.769Z,19.27
2022-09-13T06:59:00.154Z,20.95
2022-09-13T07:03:54.401Z,20.05
2022-09-13T07:08:45.368Z,19.92
2022-09-13T07:13:36.329Z,19.20
2022-09-13T07:18:26.205Z,17.92
2022-09-13T07:23:18.360Z,12.90
2022-09-13T07:28:08.031Z,10.35
2022-09-13T07:32:57.622Z,7.00
2022-09-13T07:37:49.486Z,5.80
2022-09-13T07:42:41.890Z,5.25
2022-09-13T07:47:31.533Z,3.65
2022-09-13T07:52:21.689Z,3.05
2022-09-13T07:57:13.219Z,2.72
2022-09-13T08:02:05.574Z,2.63
2022-09-13T08:06:55.951Z,1.65
2022-09-13T08:11:47.857Z,3.30
2022-09-13T08:16:39.562Z,4.60
2022-09-13T08:21:36.227Z,2.40
2022-09-13T08:26:26.156Z,1.60
2022-09-13T08:31:20.009Z,1.10
2022-09-13T08:36:09.739Z,1.02
2022-09-13T08:41:08.113Z,1.60
2022-09-13T08:46:04.547Z,1.20
2022-09-13T08:51:02.749Z,1.00
2022-09-13T08:56:06.361Z,1.60
2022-09-13T09:01:03.817Z,1.43
2022-09-13T09:05:54.594Z,1.23
2022-09-13T09:10:48.141Z,2.00
2022-09-13T09:15:45.208Z,2.67
2022-09-13T09:20:39.846Z,2.85
2022-09-13T09:25:30.059Z,2.20
2022-09-13T09:30:20.078Z,3.83
2022-09-13T09:35:21.226Z,2.80
2022-09-13T09:40:17.536Z,5.57
2022-09-13T09:45:18.875Z,5.32
2022-09-13T09:50:18.538Z,4.03
2022-09-13T09:55:22.803Z,3.35
2022-09-13T10:00:15.525Z,2.78
2022-09-13T10:05:07.256Z,2.83
2022-09-13T10:10:04.980Z,3.17
2022-09-13T10:14:59.115Z,0.82
2022-09-13T10:20:01.556Z,3.17
2022-09-13T10:24:51.400Z,1.00
2022-09-13T10:29:50.653Z,2.10
2022-09-13T10:34:40.528Z,1.45
2022-09-13T10:39:33.984Z,2.10
2022-09-13T10:44:31.896Z,2.40
2022-09-13T10:49:48.942Z,1.52
2022-09-13T10:54:38.522Z,1.15
2022-09-13T10:59:30.692Z,0.75
2022-09-13T11:04:39.294Z,2.60
2022-09-13T11:09:36.703Z,0.82
2022-09-13T11:14:42.792Z,2.88
2022-09-13T11:19:56.328Z,0.98
2022-09-13T11:25:01.469Z,3.65
2022-09-13T11:30:11.356Z,1.25
2022-09-13T11:35:20.708Z,2.13
2022-09-13T11:40:34.568Z,1.45
2022-09-13T11:45:28.477Z,1.73
2022-09-13T11:50:43.839Z,0.55
2022-09-13T11:55:41.936Z,1.30
2022-09-13T12:00:37.726Z,1.10
2022-09-13T12:05:31.323Z,0.88
2022-09-13T12:10:25.729Z,0.80
2022-09-13T12:15:24.044Z,0.65
2022-09-13T12:20:23.027Z,0.82
2022-09-13T12:25:24.279Z,1.08
2022-09-13T12:30:22.449Z,0.80
2022-09-13T12:35:22.399Z,2.17
2022-09-13T12:40:39.616Z,1.10
2022-09-13T12:45:46.058Z,1.92
2022-09-13T12:50:48.991Z,0.47
2022-09-13T12:56:04.875Z,1.20
2022-09-13T13:01:11.773Z,1.55
2022-09-13T13:06:12.739Z,1.05
2022-09-13T13:11:05.741Z,1.20
2022-09-13T13:16:09.276Z,1.58
2022-09-13T13:21:34.451Z,1.58
2022-09-13T13:26:49.703Z,1.67
2022-09-13T13:31:44.216Z,1.58
2022-09-13T13:36:45.424Z,0.45
2022-09-13T13:41:43.469Z,2.85
2022-09-13T13:46:35.109Z,0.60
2022-09-13T13:56:24.038Z,1.38
2022-09-13T14:01:19.664Z,0.88
2022-09-13T14:06:17.838Z,0.75
2022-09-13T14:11:25.241Z,2.20
2022-09-13T14:16:31.126Z,0.57
2022-09-13T14:21:28.206Z,0.68
2022-09-13T14:26:20.636Z,1.27
2022-09-13T14:31:10.697Z,2.72
2022-09-13T14:36:03.596Z,0.70
2022-09-13T14:40:55.853Z,0.60
2022-09-13T14:45:51.258Z,1.00
2022-09-13T14:50:44.962Z,2.38
2022-09-13T14:55:40.501Z,0.65
2022-09-13T15:00:32.632Z,1.05
2022-09-13T15:05:27.555Z,1.38
2022-09-13T22:44:10.623Z,3.22
2022-09-13T22:49:03.217Z,2.45
2022-09-13T22:53:55.116Z,4.43
2022-09-13T22:58:45.338Z,3.38
2022-09-13T23:03:36.509Z,3.50
2022-09-13T23:08:28.917Z,3.97
2022-09-13T23:13:18.460Z,2.72
2022-09-13T23:18:09.672Z,3.60
2022-09-13T23:22:59.319Z,5.10
2022-09-13T23:27:51.565Z,5.07
2022-09-13T23:32:41.283Z,3.58
2022-09-13T23:37:31.262Z,2.90
2022-09-13T23:42:21.424Z,2.65
2022-09-13T23:47:14.668Z,3.33
2022-09-13T23:52:04.465Z,2.80
2022-09-13T23:56:54.136Z,5.10
